sensor_id;sensor_type;location;lat;lon;timestamp;temperature;humidity
77839;SHT31;67034;43.226;27.932;2023-05-20T00:00:44;18.72;56.84
77839;SHT31;67034;43.226;27.932;2023-05-20T00:03:10;18.77;56.82
77839;SHT31;67034;43.226;27.932;2023-05-20T00:05:35;18.72;57.08
77839;SHT31;67034;43.226;27.932;2023-05-20T00:08:03;18.63;57.49
77839;SHT31;67034;43.226;27.932;2023-05-20T00:10:31;18.58;57.64
77839;SHT31;67034;43.226;27.932;2023-05-20T00:12:57;18.56;57.73
77839;SHT31;67034;43.226;27.932;2023-05-20T00:15:23;18.65;57.54
77839;SHT31;67034;43.226;27.932;2023-05-20T00:17:48;18.69;57.50
77839;SHT31;67034;43.226;27.932;2023-05-20T00:20:14;18.57;57.87
77839;SHT31;67034;43.226;27.932;2023-05-20T00:22:40;18.50;58.20
77839;SHT31;67034;43.226;27.932;2023-05-20T00:25:08;18.46;58.31
77839;SHT31;67034;43.226;27.932;2023-05-20T00:27:34;18.47;58.37
77839;SHT31;67034;43.226;27.932;2023-05-20T00:29:59;18.48;58.38
77839;SHT31;67034;43.226;27.932;2023-05-20T00:32:25;18.33;58.96
77839;SHT31;67034;43.226;27.932;2023-05-20T00:34:57;18.23;59.38
77839;SHT31;67034;43.226;27.932;2023-05-20T00:37:24;18.22;59.44
77839;SHT31;67034;43.226;27.932;2023-05-20T00:39:50;18.27;59.49
77839;SHT31;67034;43.226;27.932;2023-05-20T00:42:20;18.41;59.14
77839;SHT31;67034;43.226;27.932;2023-05-20T00:44:46;18.40;59.17
77839;SHT31;67034;43.226;27.932;2023-05-20T00:47:12;18.36;59.46
77839;SHT31;67034;43.226;27.932;2023-05-20T00:49:38;18.36;59.52
77839;SHT31;67034;43.226;27.932;2023-05-20T00:52:05;18.39;59.49
77839;SHT31;67034;43.226;27.932;2023-05-20T00:54:32;18.53;59.18
77839;SHT31;67034;43.226;27.932;2023-05-20T00:56:58;18.64;58.99
77839;SHT31;67034;43.226;27.932;2023-05-20T00:59:25;18.57;59.19
77839;SHT31;67034;43.226;27.932;2023-05-20T01:01:51;18.50;59.38
77839;SHT31;67034;43.226;27.932;2023-05-20T01:04:17;18.46;59.56
77839;SHT31;67034;43.226;27.932;2023-05-20T01:06:42;18.44;59.68
77839;SHT31;67034;43.226;27.932;2023-05-20T01:09:08;18.57;59.43
77839;SHT31;67034;43.226;27.932;2023-05-20T01:11:38;18.58;59.43
77839;SHT31;67034;43.226;27.932;2023-05-20T01:14:07;18.46;59.84
77839;SHT31;67034;43.226;27.932;2023-05-20T01:16:38;18.41;60.04
77839;SHT31;67034;43.226;27.932;2023-05-20T01:19:14;18.37;60.24
77839;SHT31;67034;43.226;27.932;2023-05-20T01:21:44;18.40;60.20
77839;SHT31;67034;43.226;27.932;2023-05-20T01:24:12;18.43;60.04
77839;SHT31;67034;43.226;27.932;2023-05-20T01:26:39;18.39;60.36
77839;SHT31;67034;43.226;27.932;2023-05-20T01:29:04;18.29;60.65
77839;SHT31;67034;43.226;27.932;2023-05-20T01:31:32;18.23;60.94
77839;SHT31;67034;43.226;27.932;2023-05-20T01:34:01;18.19;61.19
77839;SHT31;67034;43.226;27.932;2023-05-20T01:36:27;18.22;61.16
77839;SHT31;67034;43.226;27.932;2023-05-20T01:38:53;18.23;61.21
77839;SHT31;67034;43.226;27.932;2023-05-20T01:41:22;18.10;61.62
77839;SHT31;67034;43.226;27.932;2023-05-20T01:43:49;18.06;61.81
77839;SHT31;67034;43.226;27.932;2023-05-20T01:46:15;18.03;62.03
77839;SHT31;67034;43.226;27.932;2023-05-20T01:48:40;18.06;61.96
77839;SHT31;67034;43.226;27.932;2023-05-20T01:51:07;18.14;61.66
77839;SHT31;67034;43.226;27.932;2023-05-20T01:53:33;18.13;61.56
77839;SHT31;67034;43.226;27.932;2023-05-20T01:55:58;18.09;61.69
77839;SHT31;67034;43.226;27.932;2023-05-20T01:58:25;18.09;61.83
77839;SHT31;67034;43.226;27.932;2023-05-20T02:00:51;18.05;61.86
77839;SHT31;67034;43.226;27.932;2023-05-20T02:03:17;18.10;61.83
77839;SHT31;67034;43.226;27.932;2023-05-20T02:05:42;18.17;61.74
77839;SHT31;67034;43.226;27.932;2023-05-20T02:08:08;18.10;61.97
77839;SHT31;67034;43.226;27.932;2023-05-20T02:10:34;18.08;62.30
77839;SHT31;67034;43.226;27.932;2023-05-20T02:13:00;18.06;62.46
77839;SHT31;67034;43.226;27.932;2023-05-20T02:15:27;18.10;62.41
77839;SHT31;67034;43.226;27.932;2023-05-20T02:17:52;18.17;62.21
77839;SHT31;67034;43.226;27.932;2023-05-20T02:20:19;18.19;62.11
77839;SHT31;67034;43.226;27.932;2023-05-20T02:22:44;18.10;62.44
77839;SHT31;67034;43.226;27.932;2023-05-20T02:25:10;18.14;62.41
77839;SHT31;67034;43.226;27.932;2023-05-20T02:27:36;18.19;62.37
77839;SHT31;67034;43.226;27.932;2023-05-20T02:30:02;18.30;62.12
77839;SHT31;67034;43.226;27.932;2023-05-20T02:32:29;18.41;61.87
77839;SHT31;67034;43.226;27.932;2023-05-20T02:34:55;18.40;61.86
77839;SHT31;67034;43.226;27.932;2023-05-20T02:37:21;18.34;62.00
77839;SHT31;67034;43.226;27.932;2023-05-20T02:39:46;18.32;62.08
77839;SHT31;67034;43.226;27.932;2023-05-20T02:42:12;18.36;61.97
77839;SHT31;67034;43.226;27.932;2023-05-20T02:44:38;18.43;61.83
77839;SHT31;67034;43.226;27.932;2023-05-20T02:47:04;18.51;61.55
77839;SHT31;67034;43.226;27.932;2023-05-20T02:49:31;18.41;61.44
77839;SHT31;67034;43.226;27.932;2023-05-20T02:51:56;18.34;61.81
77839;SHT31;67034;43.226;27.932;2023-05-20T02:54:22;18.34;61.67
77839;SHT31;67034;43.226;27.932;2023-05-20T02:56:48;18.37;61.71
77839;SHT31;67034;43.226;27.932;2023-05-20T02:59:14;18.44;61.72
77839;SHT31;67034;43.226;27.932;2023-05-20T03:01:39;18.44;61.87
77839;SHT31;67034;43.226;27.932;2023-05-20T03:04:05;18.27;62.35
77839;SHT31;67034;43.226;27.932;2023-05-20T03:06:33;18.20;62.78
77839;SHT31;67034;43.226;27.932;2023-05-20T03:08:59;18.17;62.98
77839;SHT31;67034;43.226;27.932;2023-05-20T03:11:24;18.19;63.10
77839;SHT31;67034;43.226;27.932;2023-05-20T03:13:50;18.27;62.97
77839;SHT31;67034;43.226;27.932;2023-05-20T03:16:16;18.17;63.18
77839;SHT31;67034;43.226;27.932;2023-05-20T03:18:44;18.13;63.20
77839;SHT31;67034;43.226;27.932;2023-05-20T03:21:10;18.20;62.89
77839;SHT31;67034;43.226;27.932;2023-05-20T03:23:37;18.26;62.48
77839;SHT31;67034;43.226;27.932;2023-05-20T03:26:03;18.37;62.09
77839;SHT31;67034;43.226;27.932;2023-05-20T03:28:31;18.47;61.75
77839;SHT31;67034;43.226;27.932;2023-05-20T03:30:56;18.37;61.57
77839;SHT31;67034;43.226;27.932;2023-05-20T03:33:22;18.29;61.58
77839;SHT31;67034;43.226;27.932;2023-05-20T03:35:50;18.32;61.44
77839;SHT31;67034;43.226;27.932;2023-05-20T03:38:16;18.41;61.35
77839;SHT31;67034;43.226;27.932;2023-05-20T03:40:43;18.53;60.84
77839;SHT31;67034;43.226;27.932;2023-05-20T03:43:08;18.51;60.95
77839;SHT31;67034;43.226;27.932;2023-05-20T03:45:34;18.41;61.19
77839;SHT31;67034;43.226;27.932;2023-05-20T03:48:00;18.39;61.30
77839;SHT31;67034;43.226;27.932;2023-05-20T03:50:27;18.40;61.13
77839;SHT31;67034;43.226;27.932;2023-05-20T03:52:53;18.40;61.42
77839;SHT31;67034;43.226;27.932;2023-05-20T03:55:19;18.44;61.99
77839;SHT31;67034;43.226;27.932;2023-05-20T03:57:46;18.34;62.35
77839;SHT31;67034;43.226;27.932;2023-05-20T04:00:12;18.23;63.12
77839;SHT31;67034;43.226;27.932;2023-05-20T04:02:39;18.23;63.09
77839;SHT31;67034;43.226;27.932;2023-05-20T04:05:05;18.20;63.58
77839;SHT31;67034;43.226;27.932;2023-05-20T04:07:33;18.25;64.05
77839;SHT31;67034;43.226;27.932;2023-05-20T04:10:00;18.27;64.50
77839;SHT31;67034;43.226;27.932;2023-05-20T04:12:26;18.06;65.78
77839;SHT31;67034;43.226;27.932;2023-05-20T04:14:56;17.95;66.65
77839;SHT31;67034;43.226;27.932;2023-05-20T04:17:22;17.86;67.25
77839;SHT31;67034;43.226;27.932;2023-05-20T04:19:48;17.85;67.72
77839;SHT31;67034;43.226;27.932;2023-05-20T04:22:14;17.90;67.55
77839;SHT31;67034;43.226;27.932;2023-05-20T04:24:39;17.90;67.96
77839;SHT31;67034;43.226;27.932;2023-05-20T04:27:05;17.75;68.81
77839;SHT31;67034;43.226;27.932;2023-05-20T04:29:31;17.69;69.32
77839;SHT31;67034;43.226;27.932;2023-05-20T04:32:00;17.57;69.85
77839;SHT31;67034;43.226;27.932;2023-05-20T04:34:28;17.55;70.41
77839;SHT31;67034;43.226;27.932;2023-05-20T04:36:54;17.58;70.57
77839;SHT31;67034;43.226;27.932;2023-05-20T04:39:19;17.57;70.61
77839;SHT31;67034;43.226;27.932;2023-05-20T04:41:45;17.45;71.01
77839;SHT31;67034;43.226;27.932;2023-05-20T04:44:12;17.27;71.22
77839;SHT31;67034;43.226;27.932;2023-05-20T04:46:38;17.17;71.40
77839;SHT31;67034;43.226;27.932;2023-05-20T04:49:05;17.16;71.33
77839;SHT31;67034;43.226;27.932;2023-05-20T04:51:31;17.23;71.49
77839;SHT31;67034;43.226;27.932;2023-05-20T04:53:58;17.27;71.36
77839;SHT31;67034;43.226;27.932;2023-05-20T04:56:24;17.10;71.72
77839;SHT31;67034;43.226;27.932;2023-05-20T04:58:50;17.03;72.27
77839;SHT31;67034;43.226;27.932;2023-05-20T05:01:16;17.03;72.69
77839;SHT31;67034;43.226;27.932;2023-05-20T05:03:41;17.03;72.82
77839;SHT31;67034;43.226;27.932;2023-05-20T05:06:08;17.09;72.70
77839;SHT31;67034;43.226;27.932;2023-05-20T05:08:34;17.06;72.57
77839;SHT31;67034;43.226;27.932;2023-05-20T05:11:00;16.97;72.71
77839;SHT31;67034;43.226;27.932;2023-05-20T05:13:26;16.93;73.01
77839;SHT31;67034;43.226;27.932;2023-05-20T05:16:00;16.94;73.28
77839;SHT31;67034;43.226;27.932;2023-05-20T05:18:26;16.96;72.78
77839;SHT31;67034;43.226;27.932;2023-05-20T05:20:58;17.00;72.88
77839;SHT31;67034;43.226;27.932;2023-05-20T05:23:25;17.03;72.78
77839;SHT31;67034;43.226;27.932;2023-05-20T05:25:51;16.97;72.84
77839;SHT31;67034;43.226;27.932;2023-05-20T05:28:17;17.07;72.73
77839;SHT31;67034;43.226;27.932;2023-05-20T05:30:43;17.16;71.97
77839;SHT31;67034;43.226;27.932;2023-05-20T05:33:08;17.34;72.01
77839;SHT31;67034;43.226;27.932;2023-05-20T05:35:34;17.44;71.53
77839;SHT31;67034;43.226;27.932;2023-05-20T05:38:00;17.48;71.12
77839;SHT31;67034;43.226;27.932;2023-05-20T05:40:27;17.37;71.41
77839;SHT31;67034;43.226;27.932;2023-05-20T05:42:53;17.34;71.67
77839;SHT31;67034;43.226;27.932;2023-05-20T05:45:18;17.32;71.59
77839;SHT31;67034;43.226;27.932;2023-05-20T05:47:44;17.38;71.60
77839;SHT31;67034;43.226;27.932;2023-05-20T05:50:10;17.50;71.04
77839;SHT31;67034;43.226;27.932;2023-05-20T05:52:36;17.47;70.85
77839;SHT31;67034;43.226;27.932;2023-05-20T05:55:02;17.40;71.53
77839;SHT31;67034;43.226;27.932;2023-05-20T05:57:29;17.40;71.51
77839;SHT31;67034;43.226;27.932;2023-05-20T05:59:55;17.45;71.23
77839;SHT31;67034;43.226;27.932;2023-05-20T06:02:21;17.52;70.75
77839;SHT31;67034;43.226;27.932;2023-05-20T06:04:47;17.61;70.45
77839;SHT31;67034;43.226;27.932;2023-05-20T06:07:12;17.68;69.95
77839;SHT31;67034;43.226;27.932;2023-05-20T06:09:38;17.64;69.65
77839;SHT31;67034;43.226;27.932;2023-05-20T06:12:04;17.62;69.40
77839;SHT31;67034;43.226;27.932;2023-05-20T06:14:31;17.68;69.18
77839;SHT31;67034;43.226;27.932;2023-05-20T06:16:57;17.78;68.00
77839;SHT31;67034;43.226;27.932;2023-05-20T06:19:23;17.92;67.41
77839;SHT31;67034;43.226;27.932;2023-05-20T06:21:49;17.96;65.99
77839;SHT31;67034;43.226;27.932;2023-05-20T06:24:14;17.93;65.99
77839;SHT31;67034;43.226;27.932;2023-05-20T06:26:40;17.99;65.83
77839;SHT31;67034;43.226;27.932;2023-05-20T06:29:06;18.03;64.71
77839;SHT31;67034;43.226;27.932;2023-05-20T06:31:33;18.17;64.25
77839;SHT31;67034;43.226;27.932;2023-05-20T06:33:58;18.33;64.19
77839;SHT31;67034;43.226;27.932;2023-05-20T06:36:25;18.46;63.79
77839;SHT31;67034;43.226;27.932;2023-05-20T06:38:51;18.46;63.56
77839;SHT31;67034;43.226;27.932;2023-05-20T06:41:17;18.51;62.93
77839;SHT31;67034;43.226;27.932;2023-05-20T06:43:42;18.57;62.34
77839;SHT31;67034;43.226;27.932;2023-05-20T06:46:08;18.72;61.80
77839;SHT31;67034;43.226;27.932;2023-05-20T06:48:35;18.91;61.54
77839;SHT31;67034;43.226;27.932;2023-05-20T06:51:01;18.97;60.45
77839;SHT31;67034;43.226;27.932;2023-05-20T06:53:27;19.01;60.49
77839;SHT31;67034;43.226;27.932;2023-05-20T06:55:52;19.09;59.44
77839;SHT31;67034;43.226;27.932;2023-05-20T06:58:20;19.16;58.93
77839;SHT31;67034;43.226;27.932;2023-05-20T07:00:46;19.40;58.00
77839;SHT31;67034;43.226;27.932;2023-05-20T07:03:12;19.57;57.44
77839;SHT31;67034;43.226;27.932;2023-05-20T07:05:39;19.60;57.29
77839;SHT31;67034;43.226;27.932;2023-05-20T07:08:04;19.62;57.35
77839;SHT31;67034;43.226;27.932;2023-05-20T07:10:30;19.69;57.03
77839;SHT31;67034;43.226;27.932;2023-05-20T07:12:56;19.80;56.64
77839;SHT31;67034;43.226;27.932;2023-05-20T07:15:21;19.94;56.38
77839;SHT31;67034;43.226;27.932;2023-05-20T07:17:47;20.07;55.98
77839;SHT31;67034;43.226;27.932;2023-05-20T07:20:13;20.03;55.81
77839;SHT31;67034;43.226;27.932;2023-05-20T07:22:40;20.07;55.81
77839;SHT31;67034;43.226;27.932;2023-05-20T07:25:07;20.10;55.78
77839;SHT31;67034;43.226;27.932;2023-05-20T07:27:32;20.10;55.74
77839;SHT31;67034;43.226;27.932;2023-05-20T07:29:58;20.14;55.72
77839;SHT31;67034;43.226;27.932;2023-05-20T07:32:24;20.08;56.17
77839;SHT31;67034;43.226;27.932;2023-05-20T07:34:50;20.00;56.87
77839;SHT31;67034;43.226;27.932;2023-05-20T07:37:16;19.95;57.62
77839;SHT31;67034;43.226;27.932;2023-05-20T07:39:45;19.88;57.94
77839;SHT31;67034;43.226;27.932;2023-05-20T07:42:11;19.93;58.02
77839;SHT31;67034;43.226;27.932;2023-05-20T07:44:37;19.91;58.14
77839;SHT31;67034;43.226;27.932;2023-05-20T07:47:03;19.84;58.76
77839;SHT31;67034;43.226;27.932;2023-05-20T07:49:29;19.81;59.57
77839;SHT31;67034;43.226;27.932;2023-05-20T07:51:55;19.87;59.79
77839;SHT31;67034;43.226;27.932;2023-05-20T07:54:22;19.81;60.38
77839;SHT31;67034;43.226;27.932;2023-05-20T07:56:49;19.76;61.15
77839;SHT31;67034;43.226;27.932;2023-05-20T07:59:14;19.55;63.08
77839;SHT31;67034;43.226;27.932;2023-05-20T08:01:41;19.27;64.14
77839;SHT31;67034;43.226;27.932;2023-05-20T08:04:07;19.11;65.62
77839;SHT31;67034;43.226;27.932;2023-05-20T08:06:33;18.99;66.57
77839;SHT31;67034;43.226;27.932;2023-05-20T08:08:59;18.99;66.94
77839;SHT31;67034;43.226;27.932;2023-05-20T08:11:26;19.05;67.16
77839;SHT31;67034;43.226;27.932;2023-05-20T08:13:53;18.89;67.83
77839;SHT31;67034;43.226;27.932;2023-05-20T08:16:20;18.78;68.63
77839;SHT31;67034;43.226;27.932;2023-05-20T08:18:46;18.74;69.27
77839;SHT31;67034;43.226;27.932;2023-05-20T08:21:11;18.69;69.53
77839;SHT31;67034;43.226;27.932;2023-05-20T08:23:38;18.79;69.88
77839;SHT31;67034;43.226;27.932;2023-05-20T08:26:04;18.84;69.91
77839;SHT31;67034;43.226;27.932;2023-05-20T08:28:30;18.58;70.79
77839;SHT31;67034;43.226;27.932;2023-05-20T08:31:00;18.47;71.31
77839;SHT31;67034;43.226;27.932;2023-05-20T08:33:25;18.41;71.58
77839;SHT31;67034;43.226;27.932;2023-05-20T08:35:51;18.39;71.77
77839;SHT31;67034;43.226;27.932;2023-05-20T08:38:17;18.41;71.54
77839;SHT31;67034;43.226;27.932;2023-05-20T08:40:43;18.46;71.56
77839;SHT31;67034;43.226;27.932;2023-05-20T08:43:08;18.29;72.21
77839;SHT31;67034;43.226;27.932;2023-05-20T08:45:37;18.22;72.47
77839;SHT31;67034;43.226;27.932;2023-05-20T08:48:05;18.19;72.73
77839;SHT31;67034;43.226;27.932;2023-05-20T08:50:30;18.23;72.69
77839;SHT31;67034;43.226;27.932;2023-05-20T08:52:56;18.30;72.44
77839;SHT31;67034;43.226;27.932;2023-05-20T08:55:24;18.33;72.39
77839;SHT31;67034;43.226;27.932;2023-05-20T08:57:51;18.30;72.69
77839;SHT31;67034;43.226;27.932;2023-05-20T09:00:19;18.33;72.35
77839;SHT31;67034;43.226;27.932;2023-05-20T09:02:45;18.37;72.23
77839;SHT31;67034;43.226;27.932;2023-05-20T09:05:13;18.47;72.27
77839;SHT31;67034;43.226;27.932;2023-05-20T09:07:39;18.56;71.44
77839;SHT31;67034;43.226;27.932;2023-05-20T09:10:05;18.57;70.88
77839;SHT31;67034;43.226;27.932;2023-05-20T09:12:31;18.60;70.28
77839;SHT31;67034;43.226;27.932;2023-05-20T09:14:57;18.71;69.63
77839;SHT31;67034;43.226;27.932;2023-05-20T09:17:22;18.79;68.98
77839;SHT31;67034;43.226;27.932;2023-05-20T09:19:48;18.94;68.14
77839;SHT31;67034;43.226;27.932;2023-05-20T09:22:21;19.09;67.52
77839;SHT31;67034;43.226;27.932;2023-05-20T09:24:47;19.16;67.45
77839;SHT31;67034;43.226;27.932;2023-05-20T09:27:13;19.26;67.31
77839;SHT31;67034;43.226;27.932;2023-05-20T09:29:38;19.39;66.79
77839;SHT31;67034;43.226;27.932;2023-05-20T09:32:05;19.52;66.55
77839;SHT31;67034;43.226;27.932;2023-05-20T09:34:31;19.70;66.18
77839;SHT31;67034;43.226;27.932;2023-05-20T09:36:58;19.85;66.24
77839;SHT31;67034;43.226;27.932;2023-05-20T09:39:29;19.88;66.37
77839;SHT31;67034;43.226;27.932;2023-05-20T09:42:01;19.98;66.59
77839;SHT31;67034;43.226;27.932;2023-05-20T09:44:32;20.11;66.84
77839;SHT31;67034;43.226;27.932;2023-05-20T09:46:59;20.26;66.17
77839;SHT31;67034;43.226;27.932;2023-05-20T09:49:26;20.48;65.92
77839;SHT31;67034;43.226;27.932;2023-05-20T09:51:55;20.66;65.61
77839;SHT31;67034;43.226;27.932;2023-05-20T09:54:23;20.80;65.05
77839;SHT31;67034;43.226;27.932;2023-05-20T09:56:53;20.99;64.97
77839;SHT31;67034;43.226;27.932;2023-05-20T09:59:21;21.20;64.24
77839;SHT31;67034;43.226;27.932;2023-05-20T10:01:46;21.44;63.66
77839;SHT31;67034;43.226;27.932;2023-05-20T10:04:13;21.61;63.27
77839;SHT31;67034;43.226;27.932;2023-05-20T10:06:49;21.62;62.74
77839;SHT31;67034;43.226;27.932;2023-05-20T10:09:33;21.82;62.04
77839;SHT31;67034;43.226;27.932;2023-05-20T10:12:09;22.20;61.64
77839;SHT31;67034;43.226;27.932;2023-05-20T10:14:45;22.57;60.58
77839;SHT31;67034;43.226;27.932;2023-05-20T10:17:16;22.81;59.64
77839;SHT31;67034;43.226;27.932;2023-05-20T10:19:42;22.95;58.66
77839;SHT31;67034;43.226;27.932;2023-05-20T10:22:10;23.41;58.30
77839;SHT31;67034;43.226;27.932;2023-05-20T10:24:40;23.98;57.83
77839;SHT31;67034;43.226;27.932;2023-05-20T10:27:09;24.36;51.49
77839;SHT31;67034;43.226;27.932;2023-05-20T10:29:42;24.47;48.53
77839;SHT31;67034;43.226;27.932;2023-05-20T10:32:08;24.97;50.15
77839;SHT31;67034;43.226;27.932;2023-05-20T10:34:44;25.38;47.33
77839;SHT31;67034;43.226;27.932;2023-05-20T10:37:22;25.79;44.01
77839;SHT31;67034;43.226;27.932;2023-05-20T10:39:48;26.22;44.10
77839;SHT31;67034;43.226;27.932;2023-05-20T10:42:15;26.45;42.03
77839;SHT31;67034;43.226;27.932;2023-05-20T10:44:51;26.58;41.59
77839;SHT31;67034;43.226;27.932;2023-05-20T10:47:17;26.55;39.25
77839;SHT31;67034;43.226;27.932;2023-05-20T10:49:44;26.51;40.61
77839;SHT31;67034;43.226;27.932;2023-05-20T10:52:13;26.53;39.11
77839;SHT31;67034;43.226;27.932;2023-05-20T10:54:42;26.45;39.32
77839;SHT31;67034;43.226;27.932;2023-05-20T10:57:09;26.63;39.95
77839;SHT31;67034;43.226;27.932;2023-05-20T10:59:37;27.02;41.53
77839;SHT31;67034;43.226;27.932;2023-05-20T11:02:03;27.22;38.82
77839;SHT31;67034;43.226;27.932;2023-05-20T11:04:29;27.61;38.88
77839;SHT31;67034;43.226;27.932;2023-05-20T11:06:56;27.69;37.10
77839;SHT31;67034;43.226;27.932;2023-05-20T11:09:23;27.71;37.63
77839;SHT31;67034;43.226;27.932;2023-05-20T11:11:49;27.66;35.00
77839;SHT31;67034;43.226;27.932;2023-05-20T11:14:15;27.90;35.69
77839;SHT31;67034;43.226;27.932;2023-05-20T11:16:44;28.08;34.68
77839;SHT31;67034;43.226;27.932;2023-05-20T11:19:13;28.48;34.00
77839;SHT31;67034;43.226;27.932;2023-05-20T11:21:42;28.49;34.29
77839;SHT31;67034;43.226;27.932;2023-05-20T11:24:07;28.68;33.94
77839;SHT31;67034;43.226;27.932;2023-05-20T11:26:33;28.82;33.70
77839;SHT31;67034;43.226;27.932;2023-05-20T11:29:00;28.53;33.46
77839;SHT31;67034;43.226;27.932;2023-05-20T11:31:26;28.60;34.96
77839;SHT31;67034;43.226;27.932;2023-05-20T11:33:53;28.62;34.30
77839;SHT31;67034;43.226;27.932;2023-05-20T11:36:19;28.69;35.09
77839;SHT31;67034;43.226;27.932;2023-05-20T11:38:46;28.70;35.10
77839;SHT31;67034;43.226;27.932;2023-05-20T11:41:12;28.86;35.96
77839;SHT31;67034;43.226;27.932;2023-05-20T11:43:38;28.95;36.78
77839;SHT31;67034;43.226;27.932;2023-05-20T11:46:06;29.10;36.50
77839;SHT31;67034;43.226;27.932;2023-05-20T11:48:31;29.30;37.40
77839;SHT31;67034;43.226;27.932;2023-05-20T11:50:58;29.23;37.20
77839;SHT31;67034;43.226;27.932;2023-05-20T11:53:24;28.97;37.67
77839;SHT31;67034;43.226;27.932;2023-05-20T11:55:52;28.84;38.16
77839;SHT31;67034;43.226;27.932;2023-05-20T11:58:19;28.24;38.54
77839;SHT31;67034;43.226;27.932;2023-05-20T12:00:45;27.53;39.97
77839;SHT31;67034;43.226;27.932;2023-05-20T12:03:11;27.02;41.37
77839;SHT31;67034;43.226;27.932;2023-05-20T12:05:36;27.13;41.60
77839;SHT31;67034;43.226;27.932;2023-05-20T12:08:04;27.13;41.73
77839;SHT31;67034;43.226;27.932;2023-05-20T12:10:29;26.74;42.62
77839;SHT31;67034;43.226;27.932;2023-05-20T12:12:55;26.26;43.49
77839;SHT31;67034;43.226;27.932;2023-05-20T12:15:21;26.05;43.92
77839;SHT31;67034;43.226;27.932;2023-05-20T12:17:48;26.12;44.20
77839;SHT31;67034;43.226;27.932;2023-05-20T12:20:15;26.39;43.76
77839;SHT31;67034;43.226;27.932;2023-05-20T12:22:41;26.63;43.79
77839;SHT31;67034;43.226;27.932;2023-05-20T12:25:10;27.05;40.18
77839;SHT31;67034;43.226;27.932;2023-05-20T12:27:36;27.25;37.49
77839;SHT31;67034;43.226;27.932;2023-05-20T12:30:02;27.54;37.33
77839;SHT31;67034;43.226;27.932;2023-05-20T12:32:28;27.61;37.52
77839;SHT31;67034;43.226;27.932;2023-05-20T12:34:54;27.79;36.88
77839;SHT31;67034;43.226;27.932;2023-05-20T12:37:20;28.01;36.12
77839;SHT31;67034;43.226;27.932;2023-05-20T12:39:46;28.05;34.79
77839;SHT31;67034;43.226;27.932;2023-05-20T12:42:13;28.02;35.06
77839;SHT31;67034;43.226;27.932;2023-05-20T12:44:38;28.05;33.73
77839;SHT31;67034;43.226;27.932;2023-05-20T12:47:04;28.01;34.51
77839;SHT31;67034;43.226;27.932;2023-05-20T12:49:30;27.98;34.65
77839;SHT31;67034;43.226;27.932;2023-05-20T12:51:56;28.21;34.30
77839;SHT31;67034;43.226;27.932;2023-05-20T12:54:21;28.29;34.22
77839;SHT31;67034;43.226;27.932;2023-05-20T12:56:47;28.44;33.78
77839;SHT31;67034;43.226;27.932;2023-05-20T12:59:14;28.56;32.09
77839;SHT31;67034;43.226;27.932;2023-05-20T13:01:40;28.68;32.38
77839;SHT31;67034;43.226;27.932;2023-05-20T13:04:05;28.76;32.66
77839;SHT31;67034;43.226;27.932;2023-05-20T13:06:32;28.92;31.82
77839;SHT31;67034;43.226;27.932;2023-05-20T13:08:58;29.16;32.19
77839;SHT31;67034;43.226;27.932;2023-05-20T13:11:24;29.35;32.41
77839;SHT31;67034;43.226;27.932;2023-05-20T13:13:49;29.50;31.99
77839;SHT31;67034;43.226;27.932;2023-05-20T13:16:17;29.65;32.03
77839;SHT31;67034;43.226;27.932;2023-05-20T13:18:43;29.95;31.15
77839;SHT31;67034;43.226;27.932;2023-05-20T13:21:08;29.89;31.26
77839;SHT31;67034;43.226;27.932;2023-05-20T13:23:34;29.72;29.43
77839;SHT31;67034;43.226;27.932;2023-05-20T13:26:01;29.41;29.75
77839;SHT31;67034;43.226;27.932;2023-05-20T13:28:27;29.37;30.90
77839;SHT31;67034;43.226;27.932;2023-05-20T13:30:52;29.58;31.22
77839;SHT31;67034;43.226;27.932;2023-05-20T13:33:19;29.84;31.10
77839;SHT31;67034;43.226;27.932;2023-05-20T13:35:47;29.72;31.63
77839;SHT31;67034;43.226;27.932;2023-05-20T13:38:13;29.18;32.36
77839;SHT31;67034;43.226;27.932;2023-05-20T13:40:38;29.03;33.11
77839;SHT31;67034;43.226;27.932;2023-05-20T13:43:04;28.65;33.32
77839;SHT31;67034;43.226;27.932;2023-05-20T13:45:30;28.55;33.64
77839;SHT31;67034;43.226;27.932;2023-05-20T13:47:56;28.79;35.33
77839;SHT31;67034;43.226;27.932;2023-05-20T13:50:24;28.84;34.34
77839;SHT31;67034;43.226;27.932;2023-05-20T13:52:50;29.03;34.90
77839;SHT31;67034;43.226;27.932;2023-05-20T13:55:16;29.13;35.54
77839;SHT31;67034;43.226;27.932;2023-05-20T13:57:41;29.24;36.54
77839;SHT31;67034;43.226;27.932;2023-05-20T14:00:08;29.18;36.16
77839;SHT31;67034;43.226;27.932;2023-05-20T14:02:34;29.26;36.33
77839;SHT31;67034;43.226;27.932;2023-05-20T14:05:00;29.23;37.02
77839;SHT31;67034;43.226;27.932;2023-05-20T14:07:28;29.24;36.53
77839;SHT31;67034;43.226;27.932;2023-05-20T14:09:53;29.21;35.66
77839;SHT31;67034;43.226;27.932;2023-05-20T14:12:19;29.07;35.65
77839;SHT31;67034;43.226;27.932;2023-05-20T14:14:47;28.83;35.87
77839;SHT31;67034;43.226;27.932;2023-05-20T14:17:12;28.66;35.46
77839;SHT31;67034;43.226;27.932;2023-05-20T14:19:38;28.49;35.69
77839;SHT31;67034;43.226;27.932;2023-05-20T14:22:04;28.22;35.71
77839;SHT31;67034;43.226;27.932;2023-05-20T14:24:31;28.22;36.30
77839;SHT31;67034;43.226;27.932;2023-05-20T14:26:57;28.47;36.76
77839;SHT31;67034;43.226;27.932;2023-05-20T14:29:24;28.47;37.06
77839;SHT31;67034;43.226;27.932;2023-05-20T14:31:49;28.12;35.68
77839;SHT31;67034;43.226;27.932;2023-05-20T14:34:15;27.52;36.96
77839;SHT31;67034;43.226;27.932;2023-05-20T14:36:41;27.19;38.35
77839;SHT31;67034;43.226;27.932;2023-05-20T14:39:08;27.08;38.59
77839;SHT31;67034;43.226;27.932;2023-05-20T14:41:35;27.13;38.41
77839;SHT31;67034;43.226;27.932;2023-05-20T14:44:01;27.21;38.60
77839;SHT31;67034;43.226;27.932;2023-05-20T14:46:26;27.08;38.51
77839;SHT31;67034;43.226;27.932;2023-05-20T14:48:52;27.25;38.66
77839;SHT31;67034;43.226;27.932;2023-05-20T14:51:18;27.32;38.81
77839;SHT31;67034;43.226;27.932;2023-05-20T14:53:43;27.23;39.28
77839;SHT31;67034;43.226;27.932;2023-05-20T14:56:09;27.18;39.05
77839;SHT31;67034;43.226;27.932;2023-05-20T14:58:37;27.02;39.80
77839;SHT31;67034;43.226;27.932;2023-05-20T15:01:03;26.57;39.54
77839;SHT31;67034;43.226;27.932;2023-05-20T15:03:29;26.13;40.31
77839;SHT31;67034;43.226;27.932;2023-05-20T15:05:55;25.95;40.69
77839;SHT31;67034;43.226;27.932;2023-05-20T15:08:20;25.99;40.41
77839;SHT31;67034;43.226;27.932;2023-05-20T15:10:46;25.90;40.55